sensor_id;sensor_type;location;lat;lon;timestamp;pressure;altitude;pressure_sealevel;temperature;humidity
75788;BME280;64406;50.024;14.492;2023-12-04T00:00:43;98549.44;;;-7.76;96.48
75788;BME280;64406;50.024;14.492;2023-12-04T00:03:28;98561.84;;;-7.78;95.93
75788;BME280;64406;50.024;14.492;2023-12-04T00:05:54;98561.88;;;-7.96;96.24
75788;BME280;64406;50.024;14.492;2023-12-04T00:08:20;98558.53;;;-8.06;97.05
75788;BME280;64406;50.024;14.492;2023-12-04T00:10:45;98562.72;;;-7.95;96.40
75788;BME280;64406;50.024;14.492;2023-12-04T00:13:11;98555.09;;;-8.06;95.97
75788;BME280;64406;50.024;14.492;2023-12-04T00:15:37;98554.66;;;-8.02;96.81
75788;BME280;64406;50.024;14.492;2023-12-04T00:18:02;98552.16;;;-8.11;97.52
75788;BME280;64406;50.024;14.492;2023-12-04T00:20:28;98557.88;;;-8.08;97.21
75788;BME280;64406;50.024;14.492;2023-12-04T00:22:53;98551.28;;;-7.94;97.50
75788;BME280;64406;50.024;14.492;2023-12-04T00:25:20;98546.09;;;-8.12;97.38
75788;BME280;64406;50.024;14.492;2023-12-04T00:27:45;98553.84;;;-8.20;97.90
75788;BME280;64406;50.024;14.492;2023-12-04T00:30:11;98553.34;;;-8.24;96.83
75788;BME280;64406;50.024;14.492;2023-12-04T00:32:36;98560.56;;;-8.43;98.09
75788;BME280;64406;50.024;14.492;2023-12-04T00:35:02;98555.41;;;-8.35;97.44
75788;BME280;64406;50.024;14.492;2023-12-04T00:37:28;98554.53;;;-8.44;98.01
75788;BME280;64406;50.024;14.492;2023-12-04T00:39:54;98546.69;;;-8.44;98.95
75788;BME280;64406;50.024;14.492;2023-12-04T00:42:19;98558.78;;;-8.43;98.56
75788;BME280;64406;50.024;14.492;2023-12-04T00:44:45;98553.03;;;-8.46;98.66
75788;BME280;64406;50.024;14.492;2023-12-04T00:47:10;98549.91;;;-8.50;98.86
75788;BME280;64406;50.024;14.492;2023-12-04T00:49:36;98554.41;;;-8.34;99.37
75788;BME280;64406;50.024;14.492;2023-12-04T00:52:02;98550.41;;;-8.46;98.68
75788;BME280;64406;50.024;14.492;2023-12-04T00:54:28;98553.13;;;-8.38;99.15
75788;BME280;64406;50.024;14.492;2023-12-04T00:56:53;98571.41;;;-8.38;98.31
75788;BME280;64406;50.024;14.492;2023-12-04T00:59:19;98559.81;;;-8.36;98.17
75788;BME280;64406;50.024;14.492;2023-12-04T01:01:45;98534.44;;;-8.43;98.92
75788;BME280;64406;50.024;14.492;2023-12-04T01:04:10;98537.44;;;-8.56;98.02
75788;BME280;64406;50.024;14.492;2023-12-04T01:06:36;98536.63;;;-8.57;98.13
75788;BME280;64406;50.024;14.492;2023-12-04T01:09:02;98543.91;;;-8.60;98.53
75788;BME280;64406;50.024;14.492;2023-12-04T01:11:27;98547.59;;;-8.71;99.40
75788;BME280;64406;50.024;14.492;2023-12-04T01:13:53;98557.56;;;-8.66;98.14
75788;BME280;64406;50.024;14.492;2023-12-04T01:16:19;98552.66;;;-8.69;98.43
75788;BME280;64406;50.024;14.492;2023-12-04T01:18:44;98562.41;;;-8.71;99.52
75788;BME280;64406;50.024;14.492;2023-12-04T01:21:10;98562.19;;;-8.78;98.64
75788;BME280;64406;50.024;14.492;2023-12-04T01:23:36;98552.19;;;-8.83;98.47
75788;BME280;64406;50.024;14.492;2023-12-04T01:26:02;98566.22;;;-8.84;99.69
75788;BME280;64406;50.024;14.492;2023-12-04T01:28:28;98564.44;;;-8.83;99.15
75788;BME280;64406;50.024;14.492;2023-12-04T01:30:54;98569.06;;;-8.77;99.71
75788;BME280;64406;50.024;14.492;2023-12-04T01:33:19;98570.63;;;-8.84;99.38
75788;BME280;64406;50.024;14.492;2023-12-04T01:35:45;98570.41;;;-8.91;99.25
75788;BME280;64406;50.024;14.492;2023-12-04T01:38:11;98570.31;;;-8.81;100.00
75788;BME280;64406;50.024;14.492;2023-12-04T01:40:36;98569.13;;;-8.87;100.00
75788;BME280;64406;50.024;14.492;2023-12-04T01:43:02;98570.63;;;-8.84;99.86
75788;BME280;64406;50.024;14.492;2023-12-04T01:45:27;98565.44;;;-8.94;100.00
75788;BME280;64406;50.024;14.492;2023-12-04T01:47:54;98557.09;;;-8.97;99.14
75788;BME280;64406;50.024;14.492;2023-12-04T01:50:19;98565.06;;;-8.99;99.02
75788;BME280;64406;50.024;14.492;2023-12-04T01:52:46;98554.19;;;-8.94;100.00
75788;BME280;64406;50.024;14.492;2023-12-04T01:55:12;98558.34;;;-9.01;98.95
75788;BME280;64406;50.024;14.492;2023-12-04T01:57:39;98554.59;;;-9.17;99.74
75788;BME280;64406;50.024;14.492;2023-12-04T02:00:06;98549.81;;;-9.21;99.63
75788;BME280;64406;50.024;14.492;2023-12-04T02:02:40;98547.06;;;-9.20;99.80
75788;BME280;64406;50.024;14.492;2023-12-04T02:05:08;98552.59;;;-9.23;99.16
75788;BME280;64406;50.024;14.492;2023-12-04T02:07:34;98544.06;;;-9.25;99.87
75788;BME280;64406;50.024;14.492;2023-12-04T02:10:01;98543.72;;;-9.12;98.84
75788;BME280;64406;50.024;14.492;2023-12-04T02:12:26;98541.03;;;-9.20;99.83
75788;BME280;64406;50.024;14.492;2023-12-04T02:14:52;98532.97;;;-9.27;99.43
75788;BME280;64406;50.024;14.492;2023-12-04T02:17:18;98534.59;;;-9.26;99.74
75788;BME280;64406;50.024;14.492;2023-12-04T02:19:45;98535.28;;;-9.24;99.52
75788;BME280;64406;50.024;14.492;2023-12-04T02:22:10;98538.47;;;-9.30;98.72
75788;BME280;64406;50.024;14.492;2023-12-04T02:24:36;98533.16;;;-9.38;99.21
75788;BME280;64406;50.024;14.492;2023-12-04T02:27:26;98522.59;;;-9.37;98.53
75788;BME280;64406;50.024;14.492;2023-12-04T02:29:56;98525.78;;;-9.43;98.73
75788;BME280;64406;50.024;14.492;2023-12-04T02:32:24;98523.03;;;-9.41;98.82
75788;BME280;64406;50.024;14.492;2023-12-04T02:34:53;98513.72;;;-9.44;99.22
75788;BME280;64406;50.024;14.492;2023-12-04T02:37:21;98514.38;;;-9.42;98.71
75788;BME280;64406;50.024;14.492;2023-12-04T02:39:49;98515.03;;;-9.40;98.63
75788;BME280;64406;50.024;14.492;2023-12-04T02:42:18;98516.69;;;-9.39;99.51
75788;BME280;64406;50.024;14.492;2023-12-04T02:44:44;98522.94;;;-9.49;98.98
75788;BME280;64406;50.024;14.492;2023-12-04T02:47:11;98517.41;;;-9.46;99.20
75788;BME280;64406;50.024;14.492;2023-12-04T02:49:36;98509.31;;;-9.43;98.47
75788;BME280;64406;50.024;14.492;2023-12-04T02:52:02;98504.38;;;-9.46;99.44
75788;BME280;64406;50.024;14.492;2023-12-04T02:54:28;98499.16;;;-9.46;99.49
75788;BME280;64406;50.024;14.492;2023-12-04T02:56:54;98504.78;;;-9.51;99.43
75788;BME280;64406;50.024;14.492;2023-12-04T02:59:20;98499.16;;;-9.46;99.10
75788;BME280;64406;50.024;14.492;2023-12-04T03:01:45;98496.97;;;-9.51;98.43
75788;BME280;64406;50.024;14.492;2023-12-04T03:04:11;98495.34;;;-9.52;98.32
75788;BME280;64406;50.024;14.492;2023-12-04T03:06:37;98498.16;;;-9.63;99.19
75788;BME280;64406;50.024;14.492;2023-12-04T03:09:03;98508.75;;;-9.74;98.83
75788;BME280;64406;50.024;14.492;2023-12-04T03:11:29;98505.25;;;-9.55;98.79
75788;BME280;64406;50.024;14.492;2023-12-04T03:13:55;98509.06;;;-9.50;98.17
75788;BME280;64406;50.024;14.492;2023-12-04T03:16:20;98497.38;;;-9.46;97.98
75788;BME280;64406;50.024;14.492;2023-12-04T03:18:49;98483.81;;;-9.49;97.80
75788;BME280;64406;50.024;14.492;2023-12-04T03:21:14;98468.44;;;-9.52;98.71
75788;BME280;64406;50.024;14.492;2023-12-04T03:23:40;98476.00;;;-9.49;98.73
75788;BME280;64406;50.024;14.492;2023-12-04T03:26:06;98473.91;;;-9.46;98.49
75788;BME280;64406;50.024;14.492;2023-12-04T03:28:31;98463.72;;;-9.39;98.67
75788;BME280;64406;50.024;14.492;2023-12-04T03:30:57;98464.69;;;-9.40;98.78
75788;BME280;64406;50.024;14.492;2023-12-04T03:33:22;98470.72;;;-9.40;98.21
75788;BME280;64406;50.024;14.492;2023-12-04T03:35:48;98468.91;;;-9.39;98.27
75788;BME280;64406;50.024;14.492;2023-12-04T03:38:14;98474.84;;;-9.37;98.79
75788;BME280;64406;50.024;14.492;2023-12-04T03:40:39;98470.72;;;-9.40;98.12
75788;BME280;64406;50.024;14.492;2023-12-04T03:43:05;98472.06;;;-9.36;99.22
75788;BME280;64406;50.024;14.492;2023-12-04T03:45:31;98483.47;;;-9.37;99.16
75788;BME280;64406;50.024;14.492;2023-12-04T03:47:56;98472.59;;;-9.32;98.04
75788;BME280;64406;50.024;14.492;2023-12-04T03:50:22;98467.44;;;-9.42;98.83
75788;BME280;64406;50.024;14.492;2023-12-04T03:52:48;98449.69;;;-9.38;97.74
75788;BME280;64406;50.024;14.492;2023-12-04T03:55:14;98452.41;;;-9.30;98.42
75788;BME280;64406;50.024;14.492;2023-12-04T03:57:39;98445.41;;;-9.29;97.87
75788;BME280;64406;50.024;14.492;2023-12-04T04:00:05;98453.13;;;-9.38;97.56
75788;BME280;64406;50.024;14.492;2023-12-04T04:02:31;98441.88;;;-9.38;97.96
75788;BME280;64406;50.024;14.492;2023-12-04T04:04:57;98445.97;;;-9.53;97.23
75788;BME280;64406;50.024;14.492;2023-12-04T04:07:23;98450.19;;;-9.70;96.45
75788;BME280;64406;50.024;14.492;2023-12-04T04:09:49;98440.25;;;-9.67;96.56
75788;BME280;64406;50.024;14.492;2023-12-04T04:12:15;98444.97;;;-9.52;96.88
75788;BME280;64406;50.024;14.492;2023-12-04T04:14:40;98437.09;;;-9.61;95.57
75788;BME280;64406;50.024;14.492;2023-12-04T04:17:06;98441.88;;;-9.56;95.40
75788;BME280;64406;50.024;14.492;2023-12-04T04:19:32;98445.31;;;-9.83;95.93
75788;BME280;64406;50.024;14.492;2023-12-04T04:21:57;98444.91;;;-9.88;96.54
75788;BME280;64406;50.024;14.492;2023-12-04T04:24:23;98439.03;;;-9.90;96.21
75788;BME280;64406;50.024;14.492;2023-12-04T04:26:49;98442.88;;;-9.94;95.83
75788;BME280;64406;50.024;14.492;2023-12-04T04:29:14;98438.53;;;-10.03;95.64
75788;BME280;64406;50.024;14.492;2023-12-04T04:31:40;98447.34;;;-10.14;95.78
75788;BME280;64406;50.024;14.492;2023-12-04T04:34:06;98437.69;;;-10.04;95.83
75788;BME280;64406;50.024;14.492;2023-12-04T04:36:31;98435.72;;;-9.92;94.66
75788;BME280;64406;50.024;14.492;2023-12-04T04:38:57;98435.88;;;-9.94;94.64
75788;BME280;64406;50.024;14.492;2023-12-04T04:41:22;98448.94;;;-10.03;94.12
75788;BME280;64406;50.024;14.492;2023-12-04T04:43:48;98433.69;;;-9.98;94.44
75788;BME280;64406;50.024;14.492;2023-12-04T04:46:14;98435.84;;;-10.21;94.72
75788;BME280;64406;50.024;14.492;2023-12-04T04:48:40;98424.91;;;-10.25;95.24
75788;BME280;64406;50.024;14.492;2023-12-04T04:51:06;98425.94;;;-10.18;95.32
75788;BME280;64406;50.024;14.492;2023-12-04T04:53:32;98414.94;;;-10.29;95.71
75788;BME280;64406;50.024;14.492;2023-12-04T04:55:57;98426.28;;;-10.30;95.80
75788;BME280;64406;50.024;14.492;2023-12-04T04:58:23;98432.69;;;-10.15;95.98
75788;BME280;64406;50.024;14.492;2023-12-04T05:00:48;98434.50;;;-10.25;95.49
75788;BME280;64406;50.024;14.492;2023-12-04T05:03:14;98430.16;;;-10.34;96.08
75788;BME280;64406;50.024;14.492;2023-12-04T05:05:40;98430.56;;;-10.29;96.06
75788;BME280;64406;50.024;14.492;2023-12-04T05:08:06;98433.75;;;-10.18;96.06
75788;BME280;64406;50.024;14.492;2023-12-04T05:10:31;98441.22;;;-10.23;95.17
75788;BME280;64406;50.024;14.492;2023-12-04T05:12:57;98444.97;;;-10.35;94.93
75788;BME280;64406;50.024;14.492;2023-12-04T05:15:22;98444.44;;;-10.48;95.37
75788;BME280;64406;50.024;14.492;2023-12-04T05:17:48;98439.66;;;-10.53;95.10
75788;BME280;64406;50.024;14.492;2023-12-04T05:20:14;98446.91;;;-10.56;95.14
75788;BME280;64406;50.024;14.492;2023-12-04T05:22:40;98441.28;;;-10.52;95.29
75788;BME280;64406;50.024;14.492;2023-12-04T05:25:06;98432.81;;;-10.54;95.53
75788;BME280;64406;50.024;14.492;2023-12-04T05:27:32;98442.09;;;-10.51;95.59
75788;BME280;64406;50.024;14.492;2023-12-04T05:29:57;98436.09;;;-10.52;94.67
75788;BME280;64406;50.024;14.492;2023-12-04T05:32:23;98446.53;;;-10.61;95.29
75788;BME280;64406;50.024;14.492;2023-12-04T05:34:49;98445.41;;;-10.59;95.00
75788;BME280;64406;50.024;14.492;2023-12-04T05:37:14;98428.38;;;-10.44;94.36
75788;BME280;64406;50.024;14.492;2023-12-04T05:39:41;98415.66;;;-10.47;93.46
75788;BME280;64406;50.024;14.492;2023-12-04T05:42:07;98423.06;;;-10.42;93.96
75788;BME280;64406;50.024;14.492;2023-12-04T05:44:33;98419.25;;;-10.48;93.59
75788;BME280;64406;50.024;14.492;2023-12-04T05:47:00;98413.94;;;-10.56;94.31
75788;BME280;64406;50.024;14.492;2023-12-04T05:49:25;98414.19;;;-10.59;94.58
75788;BME280;64406;50.024;14.492;2023-12-04T05:51:51;98403.25;;;-10.62;95.08
75788;BME280;64406;50.024;14.492;2023-12-04T05:54:17;98401.31;;;-10.60;95.12
75788;BME280;64406;50.024;14.492;2023-12-04T05:56:43;98399.53;;;-10.60;95.55
75788;BME280;64406;50.024;14.492;2023-12-04T05:59:08;98389.22;;;-10.52;95.56
75788;BME280;64406;50.024;14.492;2023-12-04T06:01:34;98387.69;;;-10.45;95.71
75788;BME280;64406;50.024;14.492;2023-12-04T06:04:00;98371.97;;;-10.43;95.38
75788;BME280;64406;50.024;14.492;2023-12-04T06:06:26;98379.22;;;-10.47;95.51
75788;BME280;64406;50.024;14.492;2023-12-04T06:08:52;98377.19;;;-10.43;95.86
75788;BME280;64406;50.024;14.492;2023-12-04T06:11:18;98381.56;;;-10.53;95.49
75788;BME280;64406;50.024;14.492;2023-12-04T06:13:44;98384.03;;;-10.52;95.89
75788;BME280;64406;50.024;14.492;2023-12-04T06:16:09;98375.91;;;-10.39;95.84
75788;BME280;64406;50.024;14.492;2023-12-04T06:18:35;98388.34;;;-10.33;95.05
75788;BME280;64406;50.024;14.492;2023-12-04T06:21:01;98390.03;;;-10.42;94.86
75788;BME280;64406;50.024;14.492;2023-12-04T06:23:27;98384.44;;;-10.56;94.98
75788;BME280;64406;50.024;14.492;2023-12-04T06:25:53;98388.53;;;-10.44;96.38
75788;BME280;64406;50.024;14.492;2023-12-04T06:28:19;98384.84;;;-10.42;95.94
75788;BME280;64406;50.024;14.492;2023-12-04T06:30:45;98377.69;;;-10.39;95.67
75788;BME280;64406;50.024;14.492;2023-12-04T06:33:10;98384.53;;;-10.29;94.91
75788;BME280;64406;50.024;14.492;2023-12-04T06:35:38;98391.00;;;-10.43;95.54
75788;BME280;64406;50.024;14.492;2023-12-04T06:38:06;98379.72;;;-10.33;96.26
75788;BME280;64406;50.024;14.492;2023-12-04T06:40:33;98380.53;;;-10.33;96.49
75788;BME280;64406;50.024;14.492;2023-12-04T06:42:59;98375.75;;;-10.37;96.58
75788;BME280;64406;50.024;14.492;2023-12-04T06:45:25;98379.06;;;-10.35;97.09
75788;BME280;64406;50.024;14.492;2023-12-04T06:47:52;98370.78;;;-10.31;97.23
75788;BME280;64406;50.024;14.492;2023-12-04T06:50:21;98376.41;;;-10.26;96.92
75788;BME280;64406;50.024;14.492;2023-12-04T06:52:47;98363.44;;;-10.18;97.22
75788;BME280;64406;50.024;14.492;2023-12-04T06:55:16;98364.56;;;-10.20;96.13
75788;BME280;64406;50.024;14.492;2023-12-04T06:57:42;98360.25;;;-10.29;95.85
75788;BME280;64406;50.024;14.492;2023-12-04T07:00:08;98353.50;;;-10.04;96.53
75788;BME280;64406;50.024;14.492;2023-12-04T07:02:38;98354.38;;;-9.86;95.75
75788;BME280;64406;50.024;14.492;2023-12-04T07:05:04;98367.00;;;-9.91;96.54
75788;BME280;64406;50.024;14.492;2023-12-04T07:07:29;98362.63;;;-9.91;96.80
75788;BME280;64406;50.024;14.492;2023-12-04T07:09:55;98356.47;;;-9.90;96.27
75788;BME280;64406;50.024;14.492;2023-12-04T07:12:21;98351.44;;;-10.01;96.17
75788;BME280;64406;50.024;14.492;2023-12-04T07:14:47;98356.13;;;-10.04;95.26
75788;BME280;64406;50.024;14.492;2023-12-04T07:17:12;98352.28;;;-10.00;95.43
75788;BME280;64406;50.024;14.492;2023-12-04T07:19:41;98348.53;;;-9.98;94.54
75788;BME280;64406;50.024;14.492;2023-12-04T07:22:06;98343.81;;;-10.12;93.99
75788;BME280;64406;50.024;14.492;2023-12-04T07:24:32;98337.53;;;-9.92;93.42
75788;BME280;64406;50.024;14.492;2023-12-04T07:26:58;98348.25;;;-9.95;92.03
75788;BME280;64406;50.024;14.492;2023-12-04T07:29:24;98339.41;;;-9.84;91.68
75788;BME280;64406;50.024;14.492;2023-12-04T07:31:50;98339.56;;;-9.86;91.93
75788;BME280;64406;50.024;14.492;2023-12-04T07:34:15;98343.16;;;-9.69;93.00
75788;BME280;64406;50.024;14.492;2023-12-04T07:36:41;98345.19;;;-9.63;93.66
75788;BME280;64406;50.024;14.492;2023-12-04T07:39:06;98339.66;;;-9.60;93.32
75788;BME280;64406;50.024;14.492;2023-12-04T07:41:32;98335.72;;;-9.46;93.07
75788;BME280;64406;50.024;14.492;2023-12-04T07:43:58;98335.44;;;-9.43;92.22
75788;BME280;64406;50.024;14.492;2023-12-04T07:46:24;98340.06;;;-9.37;92.21
75788;BME280;64406;50.024;14.492;2023-12-04T07:48:51;98326.63;;;-9.24;92.09
75788;BME280;64406;50.024;14.492;2023-12-04T07:51:16;98324.50;;;-9.02;90.02
75788;BME280;64406;50.024;14.492;2023-12-04T07:53:42;98328.22;;;-9.05;90.42
75788;BME280;64406;50.024;14.492;2023-12-04T07:56:08;98303.06;;;-9.14;90.67
75788;BME280;64406;50.024;14.492;2023-12-04T07:58:34;98320.72;;;-9.08;90.25
75788;BME280;64406;50.024;14.492;2023-12-04T08:01:00;98328.94;;;-8.95;90.79
75788;BME280;64406;50.024;14.492;2023-12-04T08:03:26;98330.59;;;-8.94;90.65
75788;BME280;64406;50.024;14.492;2023-12-04T08:05:52;98324.91;;;-8.89;90.71
75788;BME280;64406;50.024;14.492;2023-12-04T08:08:18;98325.28;;;-8.84;90.22
75788;BME280;64406;50.024;14.492;2023-12-04T08:10:44;98319.50;;;-8.70;90.53
75788;BME280;64406;50.024;14.492;2023-12-04T08:13:09;98313.31;;;-8.69;89.87
75788;BME280;64406;50.024;14.492;2023-12-04T08:15:35;98323.50;;;-8.58;89.38
75788;BME280;64406;50.024;14.492;2023-12-04T08:18:01;98318.09;;;-8.56;89.35
75788;BME280;64406;50.024;14.492;2023-12-04T08:20:26;98328.66;;;-8.32;88.87
75788;BME280;64406;50.024;14.492;2023-12-04T08:22:52;98308.25;;;-8.28;89.28
75788;BME280;64406;50.024;14.492;2023-12-04T08:25:18;98304.56;;;-8.09;88.17
75788;BME280;64406;50.024;14.492;2023-12-04T08:27:43;98303.09;;;-8.12;88.79
75788;BME280;64406;50.024;14.492;2023-12-04T08:30:09;98315.41;;;-7.80;87.67
75788;BME280;64406;50.024;14.492;2023-12-04T08:32:35;98303.03;;;-7.70;87.32
75788;BME280;64406;50.024;14.492;2023-12-04T08:35:01;98305.97;;;-7.64;86.21
75788;BME280;64406;50.024;14.492;2023-12-04T08:37:26;98298.47;;;-7.51;85.29
75788;BME280;64406;50.024;14.492;2023-12-04T08:39:52;98302.72;;;-7.42;85.59
75788;BME280;64406;50.024;14.492;2023-12-04T08:42:20;98304.69;;;-7.52;84.65
75788;BME280;64406;50.024;14.492;2023-12-04T08:44:45;98298.94;;;-7.40;85.25
75788;BME280;64406;50.024;14.492;2023-12-04T08:47:13;98292.75;;;-7.22;84.41
75788;BME280;64406;50.024;14.492;2023-12-04T08:49:39;98299.63;;;-7.21;84.75
75788;BME280;64406;50.024;14.492;2023-12-04T08:52:10;98292.44;;;-7.19;85.17
75788;BME280;64406;50.024;14.492;2023-12-04T08:54:39;98291.75;;;-7.21;84.44
75788;BME280;64406;50.024;14.492;2023-12-04T08:57:06;98283.44;;;-7.17;84.72
75788;BME280;64406;50.024;14.492;2023-12-04T08:59:32;98283.38;;;-6.84;84.49
75788;BME280;64406;50.024;14.492;2023-12-04T09:01:57;98299.53;;;-6.56;84.36
75788;BME280;64406;50.024;14.492;2023-12-04T09:04:23;98285.84;;;-6.35;84.06
75788;BME280;64406;50.024;14.492;2023-12-04T09:06:49;98286.06;;;-6.45;83.62
75788;BME280;64406;50.024;14.492;2023-12-04T09:09:14;98282.81;;;-6.47;83.11
75788;BME280;64406;50.024;14.492;2023-12-04T09:11:42;98285.34;;;-6.31;82.46
75788;BME280;64406;50.024;14.492;2023-12-04T09:14:09;98280.06;;;-6.22;82.42
75788;BME280;64406;50.024;14.492;2023-12-04T09:16:34;98279.22;;;-6.15;83.48
75788;BME280;64406;50.024;14.492;2023-12-04T09:19:00;98273.66;;;-6.12;83.83
75788;BME280;64406;50.024;14.492;2023-12-04T09:21:26;98270.34;;;-5.83;83.42
75788;BME280;64406;50.024;14.492;2023-12-04T09:23:52;98255.56;;;-5.53;82.90
75788;BME280;64406;50.024;14.492;2023-12-04T09:26:18;98255.47;;;-5.44;82.25
75788;BME280;64406;50.024;14.492;2023-12-04T09:28:44;98260.22;;;-5.40;81.52
75788;BME280;64406;50.024;14.492;2023-12-04T09:31:09;98258.84;;;-5.36;81.13
75788;BME280;64406;50.024;14.492;2023-12-04T09:33:35;98252.44;;;-5.33;80.76
75788;BME280;64406;50.024;14.492;2023-12-04T09:36:02;98251.03;;;-5.21;80.68
75788;BME280;64406;50.024;14.492;2023-12-04T09:38:29;98249.06;;;-5.04;80.10
75788;BME280;64406;50.024;14.492;2023-12-04T09:40:58;98241.03;;;-4.88;80.35
75788;BME280;64406;50.024;14.492;2023-12-04T09:43:25;98232.16;;;-4.72;80.04
75788;BME280;64406;50.024;14.492;2023-12-04T09:45:52;98234.25;;;-4.68;79.32
75788;BME280;64406;50.024;14.492;2023-12-04T09:48:18;98214.47;;;-4.63;78.91
75788;BME280;64406;50.024;14.492;2023-12-04T09:50:47;98222.00;;;-4.60;78.48
75788;BME280;64406;50.024;14.492;2023-12-04T09:53:12;98218.00;;;-4.56;78.51
75788;BME280;64406;50.024;14.492;2023-12-04T09:55:40;98218.66;;;-4.54;79.19
75788;BME280;64406;50.024;14.492;2023-12-04T09:58:05;98204.53;;;-4.53;78.18
75788;BME280;64406;50.024;14.492;2023-12-04T10:00:32;98200.66;;;-4.36;78.69
75788;BME280;64406;50.024;14.492;2023-12-04T10:02:58;98197.97;;;-4.28;78.39
75788;BME280;64406;50.024;14.492;2023-12-04T10:05:25;98186.50;;;-4.20;78.23
75788;BME280;64406;50.024;14.492;2023-12-04T10:07:51;98188.22;;;-4.13;78.66
75788;BME280;64406;50.024;14.492;2023-12-04T10:10:17;98179.44;;;-3.98;77.72
75788;BME280;64406;50.024;14.492;2023-12-04T10:12:43;98171.19;;;-3.95;77.51
75788;BME280;64406;50.024;14.492;2023-12-04T10:15:10;98163.47;;;-3.97;77.10
75788;BME280;64406;50.024;14.492;2023-12-04T10:17:38;98159.34;;;-4.06;76.70
75788;BME280;64406;50.024;14.492;2023-12-04T10:20:15;98144.19;;;-4.04;76.92
75788;BME280;64406;50.024;14.492;2023-12-04T10:23:03;98140.00;;;-3.98;77.32
75788;BME280;64406;50.024;14.492;2023-12-04T10:25:30;98135.19;;;-3.95;76.85
75788;BME280;64406;50.024;14.492;2023-12-04T10:28:10;98128.66;;;-3.99;76.67
75788;BME280;64406;50.024;14.492;2023-12-04T10:30:37;98119.25;;;-3.87;76.82
75788;BME280;64406;50.024;14.492;2023-12-04T10:33:04;98110.84;;;-3.75;75.63
75788;BME280;64406;50.024;14.492;2023-12-04T10:35:37;98120.13;;;-3.79;75.50
75788;BME280;64406;50.024;14.492;2023-12-04T10:38:05;98125.84;;;-3.76;75.86
75788;BME280;64406;50.024;14.492;2023-12-04T10:40:33;98115.97;;;-3.67;75.16
75788;BME280;64406;50.024;14.492;2023-12-04T10:43:17;98116.75;;;-3.73;75.29
75788;BME280;64406;50.024;14.492;2023-12-04T10:45:45;98131.47;;;-3.79;74.93
75788;BME280;64406;50.024;14.492;2023-12-04T10:48:12;98124.63;;;-3.73;74.55
75788;BME280;64406;50.024;14.492;2023-12-04T10:50:42;98115.25;;;-3.83;75.14
75788;BME280;64406;50.024;14.492;2023-12-04T10:53:10;98105.72;;;-3.84;74.88
75788;BME280;64406;50.024;14.492;2023-12-04T10:55:38;98099.31;;;-3.74;74.75
75788;BME280;64406;50.024;14.492;2023-12-04T10:58:06;98109.91;;;-3.68;74.60
75788;BME280;64406;50.024;14.492;2023-12-04T11:00:33;98099.63;;;-3.63;74.07
75788;BME280;64406;50.024;14.492;2023-12-04T11:03:04;98100.59;;;-3.64;73.34
75788;BME280;64406;50.024;14.492;2023-12-04T11:05:36;98099.22;;;-3.60;74.44
75788;BME280;64406;50.024;14.492;2023-12-04T11:08:03;98100.66;;;-3.85;73.34
75788;BME280;64406;50.024;14.492;2023-12-04T11:10:31;98098.16;;;-3.93;73.90
75788;BME280;64406;50.024;14.492;2023-12-04T11:13:10;98093.34;;;-4.11;73.80
75788;BME280;64406;50.024;14.492;2023-12-04T11:15:41;98090.50;;;-4.10;74.23
75788;BME280;64406;50.024;14.492;2023-12-04T11:18:13;98084.69;;;-4.05;74.59
75788;BME280;64406;50.024;14.492;2023-12-04T11:20:59;98064.41;;;-3.83;73.78
75788;BME280;64406;50.024;14.492;2023-12-04T11:23:25;98061.22;;;-3.50;73.56
75788;BME280;64406;50.024;14.492;2023-12-04T11:25:51;98066.00;;;-3.33;72.94
75788;BME280;64406;50.024;14.492;2023-12-04T11:28:19;98066.25;;;-3.21;71.85
75788;BME280;64406;50.024;14.492;2023-12-04T11:30:45;98057.19;;;-3.12;72.77
75788;BME280;64406;50.024;14.492;2023-12-04T11:33:11;98050.34;;;-2.99;71.51
75788;BME280;64406;50.024;14.492;2023-12-04T11:35:38;98048.09;;;-3.09;71.83
75788;BME280;64406;50.024;14.492;2023-12-04T11:38:05;98039.13;;;-3.15;72.19
75788;BME280;64406;50.024;14.492;2023-12-04T11:40:32;98026.25;;;-2.96;71.54
75788;BME280;64406;50.024;14.492;2023-12-04T11:42:58;98018.34;;;-2.96;71.56
75788;BME280;64406;50.024;14.492;2023-12-04T11:45:24;98011.88;;;-2.87;71.82
75788;BME280;64406;50.024;14.492;2023-12-04T11:47:57;98015.34;;;-2.80;71.43
75788;BME280;64406;50.024;14.492;2023-12-04T11:50:26;98004.19;;;-2.82;72.04
75788;BME280;64406;50.024;14.492;2023-12-04T11:52:52;98001.16;;;-2.79;72.95
75788;BME280;64406;50.024;14.492;2023-12-04T11:55:22;97989.38;;;-2.90;72.30
75788;BME280;64406;50.024;14.492;2023-12-04T11:57:50;97991.63;;;-2.80;72.36
75788;BME280;64406;50.024;14.492;2023-12-04T12:03:04;97973.81;;;-2.65;71.84
75788;BME280;64406;50.024;14.492;2023-12-04T12:05:33;97971.59;;;-2.61;71.72
75788;BME280;64406;50.024;14.492;2023-12-04T12:08:00;97961.44;;;-2.58;71.75
75788;BME280;64406;50.024;14.492;2023-12-04T12:10:27;97952.09;;;-2.74;70.36
75788;BME280;64406;50.024;14.492;2023-12-04T12:12:53;97953.31;;;-2.89;71.31
75788;BME280;64406;50.024;14.492;2023-12-04T12:15:20;97953.13;;;-2.75;71.75
75788;BME280;64406;50.024;14.492;2023-12-04T12:17:45;97952.53;;;-2.70;71.99
75788;BME280;64406;50.024;14.492;2023-12-04T12:20:13;97947.03;;;-2.75;71.32
75788;BME280;64406;50.024;14.492;2023-12-04T12:22:39;97940.31;;;-2.78;71.57
75788;BME280;64406;50.024;14.492;2023-12-04T12:25:12;97936.72;;;-2.50;71.30
75788;BME280;64406;50.024;14.492;2023-12-04T12:27:38;97940.16;;;-2.56;71.21
75788;BME280;64406;50.024;14.492;2023-12-04T12:30:05;97943.63;;;-2.62;70.76
75788;BME280;64406;50.024;14.492;2023-12-04T12:32:32;97941.56;;;-2.74;71.20
75788;BME280;64406;50.024;14.492;2023-12-04T12:34:58;97937.50;;;-2.83;71.38
75788;BME280;64406;50.024;14.492;2023-12-04T12:37:24;97923.50;;;-2.90;72.50
75788;BME280;64406;50.024;14.492;2023-12-04T12:39:53;97913.31;;;-3.13;73.37
75788;BME280;64406;50.024;14.492;2023-12-04T12:42:25;97914.28;;;-3.27;73.42
75788;BME280;64406;50.024;14.492;2023-12-04T12:44:52;97909.38;;;-3.43;73.48
75788;BME280;64406;50.024;14.492;2023-12-04T12:47:18;97891.75;;;-3.43;74.29